createdAt,value
2023-04-06T00:00:12.586Z,55.90
2023-04-06T00:02:39.519Z,55.90
2023-04-06T00:05:06.996Z,56.00
2023-04-06T00:07:34.434Z,56.00
2023-04-06T00:10:02.532Z,55.90
2023-04-06T00:12:29.387Z,55.90
2023-04-06T00:14:56.238Z,55.90
2023-04-06T00:17:23.160Z,56.00
2023-04-06T00:19:50.070Z,55.90
2023-04-06T00:22:16.938Z,55.90
2023-04-06T00:24:43.810Z,55.90
2023-04-06T00:27:10.728Z,55.90
2023-04-06T00:29:37.888Z,55.80
2023-04-06T00:32:04.840Z,55.80
2023-04-06T00:34:31.769Z,55.90
2023-04-06T00:36:59.426Z,55.80
2023-04-06T00:39:26.315Z,55.80
2023-04-06T00:41:53.738Z,55.70
2023-04-06T00:44:21.648Z,55.70
2023-04-06T00:46:48.610Z,55.70
2023-04-06T00:49:15.476Z,55.60
2023-04-06T00:51:42.344Z,55.70
2023-04-06T00:54:09.194Z,56.40
2023-04-06T00:56:36.734Z,55.70
2023-04-06T00:59:03.823Z,55.70
2023-04-06T01:01:33.507Z,55.70
2023-04-06T01:04:06.318Z,55.80
2023-04-06T01:06:41.209Z,55.80
2023-04-06T01:09:08.541Z,56.50
2023-04-06T01:11:36.576Z,55.70
2023-04-06T01:14:06.300Z,55.50
2023-04-06T01:16:50.364Z,55.30
2023-04-06T01:19:21.665Z,55.20
2023-04-06T01:21:54.168Z,55.20
2023-04-06T01:24:33.092Z,55.20
2023-04-06T01:27:10.606Z,55.20
2023-04-06T01:30:03.993Z,55.10
2023-04-06T01:32:53.469Z,55.10
2023-04-06T01:35:35.008Z,55.10
2023-04-06T01:38:15.655Z,55.10
2023-04-06T01:40:42.568Z,55.20
2023-04-06T01:43:10.241Z,55.20
2023-04-06T01:45:48.765Z,55.30
2023-04-06T01:48:20.129Z,55.30
2023-04-06T01:50:47.167Z,55.50
2023-04-06T01:53:19.677Z,55.60
2023-04-06T01:55:48.712Z,55.90
2023-04-06T01:58:29.950Z,56.20
2023-04-06T02:00:57.539Z,56.40
2023-04-06T02:03:25.452Z,56.50
2023-04-06T02:06:01.485Z,56.50
2023-04-06T02:08:34.023Z,56.50
2023-04-06T02:11:00.921Z,56.60
2023-04-06T02:13:34.333Z,56.50
2023-04-06T02:16:03.517Z,56.40
2023-04-06T02:18:33.567Z,56.20
2023-04-06T02:21:00.404Z,56.10
2023-04-06T02:23:27.676Z,56.00
2023-04-06T02:25:54.581Z,55.80
2023-04-06T02:28:21.884Z,55.70
2023-04-06T02:30:48.815Z,55.70
2023-04-06T02:33:15.824Z,55.60
2023-04-06T02:35:47.005Z,55.60
2023-04-06T02:38:13.985Z,55.70
2023-04-06T02:40:41.023Z,55.70
2023-04-06T02:43:21.581Z,55.70
2023-04-06T02:45:52.142Z,55.70
2023-04-06T02:48:21.182Z,55.60
2023-04-06T02:50:47.997Z,55.50
2023-04-06T02:53:14.942Z,55.40
2023-04-06T02:55:42.014Z,55.50
2023-04-06T02:58:08.906Z,55.50
2023-04-06T03:00:44.200Z,55.60
2023-04-06T03:03:11.203Z,56.20
2023-04-06T03:05:38.393Z,55.50
2023-04-06T03:08:06.198Z,55.50
2023-04-06T03:10:45.467Z,55.50
2023-04-06T03:13:13.054Z,55.60
2023-04-06T03:15:52.203Z,55.70
2023-04-06T03:18:25.228Z,55.70
2023-04-06T03:20:56.428Z,55.70
2023-04-06T03:23:28.861Z,55.60
2023-04-06T03:25:59.858Z,55.70
2023-04-06T03:28:27.537Z,55.80
2023-04-06T03:30:58.142Z,56.10
2023-04-06T03:33:57.603Z,56.30
2023-04-06T03:36:31.905Z,56.40
2023-04-06T03:38:59.627Z,56.60
2023-04-06T03:41:26.525Z,57.00
2023-04-06T03:44:08.177Z,57.30
2023-04-06T03:46:35.093Z,57.30
2023-04-06T03:49:02.002Z,57.30
2023-04-06T03:51:29.338Z,57.40
2023-04-06T03:53:56.165Z,57.50
2023-04-06T03:56:23.041Z,57.60
2023-04-06T03:58:52.944Z,57.70
2023-04-06T04:01:21.544Z,57.90
2023-04-06T04:03:50.989Z,58.20
2023-04-06T04:06:18.568Z,58.40
2023-04-06T04:08:45.735Z,58.80
2023-04-06T04:11:12.571Z,59.00
2023-04-06T04:13:39.882Z,59.10
2023-04-06T04:16:07.884Z,59.10
2023-04-06T04:18:36.213Z,59.20
2023-04-06T04:21:03.119Z,59.20
2023-04-06T04:23:30.045Z,59.40
2023-04-06T04:25:56.907Z,59.20
2023-04-06T04:28:23.940Z,59.30
2023-04-06T04:30:54.818Z,59.50
2023-04-06T04:33:22.841Z,59.30
2023-04-06T04:35:51.256Z,59.30
2023-04-06T04:38:21.619Z,59.30
2023-04-06T04:40:52.455Z,59.50
2023-04-06T04:43:19.455Z,59.70
2023-04-06T04:45:46.915Z,59.70
2023-04-06T04:48:26.550Z,59.80
2023-04-06T04:51:01.067Z,60.00
2023-04-06T04:53:36.314Z,60.00
2023-04-06T04:56:14.877Z,60.10
2023-04-06T04:58:42.303Z,60.30
2023-04-06T05:01:09.426Z,60.30
2023-04-06T05:03:39.785Z,60.40
2023-04-06T05:06:10.083Z,60.30
2023-04-06T05:08:40.615Z,60.40
2023-04-06T05:11:08.125Z,60.50
2023-04-06T05:13:39.772Z,60.50
2023-04-06T05:16:12.878Z,60.70
2023-04-06T05:18:39.832Z,60.70
2023-04-06T05:21:07.397Z,60.90
2023-04-06T05:23:55.015Z,60.80
2023-04-06T05:26:22.577Z,60.50
2023-04-06T05:28:52.452Z,60.40
2023-04-06T05:31:19.571Z,60.20
2023-04-06T05:33:49.964Z,60.10
2023-04-06T05:36:24.518Z,59.10
2023-04-06T05:38:53.927Z,57.70
2023-04-06T05:41:37.950Z,56.20
2023-04-06T05:44:04.897Z,55.30
2023-04-06T05:46:33.111Z,55.10
2023-04-06T05:49:01.243Z,55.00
2023-04-06T05:51:31.554Z,55.00
2023-04-06T05:53:59.086Z,55.30
2023-04-06T05:56:27.369Z,55.30
2023-04-06T05:58:54.467Z,54.30
2023-04-06T06:01:27.264Z,53.50
2023-04-06T06:03:54.597Z,52.50
2023-04-06T06:06:23.657Z,51.70
2023-04-06T06:09:16.450Z,51.00
2023-04-06T06:11:52.958Z,50.90
2023-04-06T06:14:24.103Z,50.60
2023-04-06T06:16:51.002Z,49.90
2023-04-06T06:19:18.032Z,49.90
2023-04-06T06:21:45.966Z,49.80
2023-04-06T06:24:12.853Z,49.60
2023-04-06T06:26:40.955Z,48.60
2023-04-06T06:29:09.340Z,47.40
2023-04-06T06:31:39.192Z,46.20
2023-04-06T06:34:06.517Z,44.70
2023-04-06T06:36:36.419Z,43.10
2023-04-06T06:39:06.930Z,42.20
2023-04-06T06:41:34.108Z,41.00
2023-04-06T06:44:01.177Z,39.70
2023-04-06T06:46:29.012Z,38.50
2023-04-06T06:48:56.100Z,37.10
2023-04-06T06:51:22.943Z,36.40
2023-04-06T06:53:49.811Z,35.50
2023-04-06T06:56:17.052Z,34.30
2023-04-06T06:58:44.006Z,32.50
2023-04-06T07:01:11.138Z,31.80
2023-04-06T07:03:38.809Z,31.60
2023-04-06T07:06:05.809Z,31.40
2023-04-06T07:08:32.818Z,30.60
2023-04-06T07:10:59.854Z,29.80
2023-04-06T07:13:28.399Z,29.10
2023-04-06T07:15:57.725Z,29.10
2023-04-06T07:18:24.853Z,27.90
2023-04-06T07:20:51.779Z,27.50
2023-04-06T07:23:19.095Z,27.30
2023-04-06T07:25:46.609Z,27.00
2023-04-06T07:28:13.467Z,27.10
2023-04-06T07:30:41.537Z,27.30
2023-04-06T07:33:10.097Z,26.60
2023-04-06T07:35:38.294Z,26.30
2023-04-06T07:38:06.342Z,25.90
2023-04-06T07:40:34.564Z,26.10
2023-04-06T07:43:03.000Z,26.20
2023-04-06T07:45:30.372Z,25.70
2023-04-06T07:47:57.725Z,25.60
2023-04-06T07:50:26.455Z,26.00
2023-04-06T07:52:54.343Z,25.60
2023-04-06T07:55:21.658Z,25.60
2023-04-06T07:57:48.970Z,25.60
2023-04-06T08:00:16.823Z,26.00
2023-04-06T08:02:44.742Z,25.30
2023-04-06T08:05:12.404Z,25.10
2023-04-06T08:07:39.797Z,24.50
2023-04-06T08:10:07.392Z,24.50
2023-04-06T08:12:35.159Z,24.80
2023-04-06T08:15:03.646Z,24.50
2023-04-06T08:17:32.247Z,24.50
2023-04-06T08:19:59.242Z,25.00
2023-04-06T08:22:26.562Z,25.00
2023-04-06T08:24:53.709Z,25.30
2023-04-06T08:27:20.579Z,25.20
2023-04-06T08:29:48.422Z,24.60
2023-04-06T08:32:15.279Z,24.40
2023-04-06T08:34:42.140Z,24.20
2023-04-06T08:37:09.058Z,24.00
2023-04-06T08:39:36.198Z,23.80
2023-04-06T08:42:04.125Z,24.00
2023-04-06T08:44:33.140Z,23.80
2023-04-06T08:47:01.434Z,23.10
2023-04-06T08:49:28.594Z,23.60
2023-04-06T08:51:56.060Z,22.50
2023-04-06T08:54:22.904Z,21.70
2023-04-06T08:56:50.012Z,21.30
2023-04-06T08:59:17.000Z,20.70
2023-04-06T09:01:45.090Z,20.80
2023-04-06T09:04:13.477Z,22.30
2023-04-06T09:06:41.780Z,23.10
2023-04-06T09:09:09.041Z,22.30
2023-04-06T09:11:49.108Z,22.00
2023-04-06T09:14:16.470Z,21.90
2023-04-06T09:16:44.542Z,21.50
2023-04-06T09:19:11.802Z,21.10
2023-04-06T09:21:40.830Z,21.20
2023-04-06T09:24:09.001Z,21.40
2023-04-06T09:26:45.487Z,21.70
2023-04-06T09:29:23.036Z,21.20
2023-04-06T09:31:50.048Z,21.40
2023-04-06T09:34:24.072Z,21.70
2023-04-06T09:36:53.094Z,21.30
2023-04-06T09:39:21.864Z,21.80
2023-04-06T09:41:51.021Z,21.70
2023-04-06T09:44:18.161Z,21.70
2023-04-06T09:46:59.912Z,21.80
2023-04-06T09:49:31.730Z,21.80
2023-04-06T09:52:00.226Z,21.90
2023-04-06T09:54:29.259Z,22.10
2023-04-06T09:56:59.773Z,20.80
2023-04-06T09:59:26.811Z,20.80
2023-04-06T10:01:54.487Z,21.00
2023-04-06T10:04:32.732Z,21.20
2023-04-06T10:07:00.677Z,21.30
2023-04-06T10:09:32.298Z,21.70
2023-04-06T10:11:59.369Z,22.20
2023-04-06T10:14:26.485Z,21.60
2023-04-06T10:16:53.625Z,21.20
2023-04-06T10:19:25.997Z,21.60
2023-04-06T10:21:55.583Z,21.30
2023-04-06T10:24:22.550Z,20.60
2023-04-06T10:26:59.320Z,21.00
2023-04-06T10:29:26.190Z,21.00
2023-04-06T10:31:53.182Z,20.70
2023-04-06T10:34:20.248Z,21.10
2023-04-06T10:36:47.204Z,21.20
2023-04-06T10:39:14.088Z,20.30
2023-04-06T10:41:40.963Z,19.80
2023-04-06T10:44:07.947Z,19.80
2023-04-06T10:46:35.342Z,20.40
2023-04-06T10:49:13.235Z,20.20
2023-04-06T10:51:40.441Z,20.10
2023-04-06T10:54:07.652Z,19.70
2023-04-06T10:56:37.582Z,18.70
2023-04-06T10:59:04.457Z,18.60
2023-04-06T11:01:31.449Z,18.60
2023-04-06T11:04:01.252Z,19.10
2023-04-06T11:06:30.169Z,18.80
2023-04-06T11:08:57.433Z,19.20
2023-04-06T11:11:26.819Z,19.00
2023-04-06T11:13:57.610Z,18.80
2023-04-06T11:16:24.535Z,18.70
2023-04-06T11:19:13.437Z,18.70
2023-04-06T11:21:43.065Z,19.10
2023-04-06T11:24:16.418Z,19.80
2023-04-06T11:26:51.960Z,19.90
2023-04-06T11:29:22.687Z,20.10
2023-04-06T11:31:51.167Z,20.30
2023-04-06T11:34:19.471Z,20.20
2023-04-06T11:36:47.078Z,20.10
2023-04-06T11:39:14.875Z,20.90
2023-04-06T11:41:41.912Z,20.50
2023-04-06T11:44:08.865Z,20.30
2023-04-06T11:46:35.882Z,20.60
2023-04-06T11:49:03.394Z,20.30
2023-04-06T11:51:30.425Z,20.50
2023-04-06T11:53:57.328Z,20.70
2023-04-06T11:56:25.526Z,20.80
2023-04-06T11:58:52.733Z,20.20
2023-04-06T12:01:19.700Z,20.00
2023-04-06T12:03:46.840Z,20.10
2023-04-06T12:06:14.334Z,20.20
2023-04-06T12:08:41.750Z,20.40
2023-04-06T12:11:08.694Z,19.30
2023-04-06T12:13:35.686Z,19.60
2023-04-06T12:16:02.601Z,19.50
2023-04-06T12:18:30.409Z,19.40
2023-04-06T12:20:57.313Z,20.20
2023-04-06T12:23:24.595Z,20.60
2023-04-06T12:25:51.650Z,20.30
2023-04-06T12:28:18.701Z,20.00
2023-04-06T12:30:45.582Z,20.10
2023-04-06T12:33:12.587Z,20.40
2023-04-06T12:35:39.961Z,20.70
2023-04-06T12:38:07.194Z,20.60
2023-04-06T12:40:37.383Z,21.10
2023-04-06T12:43:04.263Z,20.90
2023-04-06T12:45:34.265Z,21.00
2023-04-06T12:48:01.310Z,20.90
2023-04-06T12:50:28.173Z,20.80
2023-04-06T12:52:55.081Z,20.30
2023-04-06T12:55:22.610Z,19.90
2023-04-06T12:57:49.463Z,19.60
2023-04-06T13:00:16.697Z,19.40
2023-04-06T13:02:48.195Z,19.70
2023-04-06T13:05:19.655Z,19.70
2023-04-06T13:07:47.818Z,19.60
2023-04-06T13:10:14.775Z,19.40
2023-04-06T13:12:41.691Z,19.70
2023-04-06T13:15:08.821Z,20.20
2023-04-06T13:17:35.737Z,20.90
2023-04-06T13:20:02.667Z,20.70
2023-04-06T13:22:29.596Z,20.80
2023-04-06T13:24:56.507Z,21.20
2023-04-06T13:27:23.359Z,21.30
2023-04-06T13:29:50.405Z,21.90
2023-04-06T13:32:17.337Z,22.10
2023-04-06T13:34:45.918Z,22.30
2023-04-06T13:37:14.317Z,22.40
2023-04-06T13:39:41.446Z,22.50
2023-04-06T13:42:08.382Z,22.60
2023-04-06T13:44:35.286Z,22.10
2023-04-06T13:47:02.189Z,21.90
2023-04-06T13:49:29.128Z,21.90
2023-04-06T13:51:56.120Z,22.80
2023-04-06T13:54:23.061Z,22.60
2023-04-06T13:56:49.888Z,23.10
2023-04-06T13:59:16.895Z,23.10
2023-04-06T14:01:44.066Z,23.40
2023-04-06T14:04:11.121Z,23.80
2023-04-06T14:06:38.116Z,24.00
2023-04-06T14:09:05.106Z,23.80
2023-04-06T14:11:33.018Z,23.80
2023-04-06T14:14:00.271Z,23.50
2023-04-06T14:16:27.574Z,23.40
2023-04-06T14:18:54.678Z,23.80
2023-04-06T14:21:21.593Z,23.90
2023-04-06T14:23:48.443Z,24.20
2023-04-06T14:26:15.302Z,24.80
2023-04-06T14:28:42.434Z,25.50
2023-04-06T14:31:14.197Z,26.20
2023-04-06T14:33:41.604Z,26.50
2023-04-06T14:36:09.230Z,26.60
2023-04-06T14:38:36.616Z,27.10
2023-04-06T14:41:03.493Z,26.90
2023-04-06T14:43:30.863Z,26.90
2023-04-06T14:46:01.567Z,27.10
2023-04-06T14:48:28.974Z,27.40
2023-04-06T14:50:56.707Z,27.60
2023-04-06T14:53:24.554Z,27.80
2023-04-06T14:55:52.531Z,27.90
2023-04-06T14:58:19.721Z,27.80
2023-04-06T15:00:46.552Z,27.80
2023-04-06T15:03:13.860Z,27.90
2023-04-06T15:05:41.078Z,28.70
2023-04-06T15:08:10.139Z,28.40
2023-04-06T15:10:37.278Z,27.70
2023-04-06T15:13:04.207Z,28.00
2023-04-06T15:15:31.141Z,27.70
2023-04-06T15:17:58.043Z,27.70
2023-04-06T15:20:24.915Z,27.50
2023-04-06T15:22:51.769Z,27.80
2023-04-06T15:25:18.657Z,28.60
2023-04-06T15:27:45.418Z,28.10
2023-04-06T15:30:12.477Z,28.30
2023-04-06T15:32:39.410Z,28.30
2023-04-06T15:35:12.743Z,28.20
2023-04-06T15:37:39.915Z,28.00
2023-04-06T15:40:07.159Z,28.10
2023-04-06T15:42:34.068Z,28.70
2023-04-06T15:45:01.710Z,29.20
2023-04-06T15:47:28.768Z,29.80
2023-04-06T15:49:55.717Z,30.20
2023-04-06T15:52:22.970Z,30.70
2023-04-06T15:54:50.093Z,31.00
2023-04-06T15:57:16.928Z,31.20
2023-04-06T15:59:43.753Z,31.10
2023-04-06T16:02:10.735Z,31.00
2023-04-06T16:04:37.852Z,31.30
2023-04-06T16:07:04.927Z,31.70
2023-04-06T16:09:31.814Z,31.40
2023-04-06T16:11:58.656Z,31.50
2023-04-06T16:14:25.736Z,32.00
2023-04-06T16:16:53.117Z,31.90
2023-04-06T16:19:19.972Z,32.10
2023-04-06T16:21:47.612Z,32.60
2023-04-06T16:24:14.439Z,32.50
2023-04-06T16:26:42.057Z,32.70
2023-04-06T16:29:10.408Z,32.70
2023-04-06T16:31:37.446Z,32.80
2023-04-06T16:34:04.479Z,32.90
2023-04-06T16:36:32.066Z,33.00
2023-04-06T16:38:59.567Z,32.90
2023-04-06T16:41:27.550Z,32.90
2023-04-06T16:43:57.152Z,32.90
2023-04-06T16:46:34.286Z,33.30
2023-04-06T16:49:01.615Z,33.40
2023-04-06T16:51:29.006Z,33.60
2023-04-06T16:53:56.068Z,34.30
2023-04-06T16:56:23.030Z,34.60
2023-04-06T16:58:49.942Z,35.00
2023-04-06T17:01:24.074Z,34.40
2023-04-06T17:03:51.375Z,35.30
2023-04-06T17:06:18.788Z,36.30
2023-04-06T17:08:46.461Z,36.60
2023-04-06T17:11:16.086Z,37.40
2023-04-06T17:13:45.010Z,38.30
2023-04-06T17:16:12.349Z,38.90
2023-04-06T17:18:39.199Z,39.30
2023-04-06T17:21:14.420Z,39.60
2023-04-06T17:23:41.683Z,40.00
2023-04-06T17:26:08.636Z,40.30
2023-04-06T17:28:35.693Z,40.80
2023-04-06T17:31:02.739Z,41.10
2023-04-06T17:33:32.508Z,41.50
2023-04-06T17:35:59.471Z,41.80
2023-04-06T17:38:26.519Z,42.10
2023-04-06T17:40:53.341Z,42.40
2023-04-06T17:43:20.223Z,42.80
2023-04-06T17:45:52.716Z,43.20
2023-04-06T17:48:19.652Z,43.60
2023-04-06T17:50:46.484Z,44.00
2023-04-06T17:53:13.578Z,44.30
2023-04-06T17:55:40.586Z,44.40
2023-04-06T17:58:07.369Z,44.70
2023-04-06T18:00:34.181Z,44.90
2023-04-06T18:03:01.221Z,45.00
2023-04-06T18:05:28.159Z,45.10
2023-04-06T18:07:57.968Z,45.30
2023-04-06T18:10:24.863Z,45.40
2023-04-06T18:12:52.437Z,45.70
2023-04-06T18:15:19.225Z,45.80
2023-04-06T18:17:47.174Z,46.10
2023-04-06T18:20:15.840Z,46.50
2023-04-06T18:22:43.204Z,46.70
2023-04-06T18:25:10.833Z,47.00
2023-04-06T18:27:38.259Z,46.90
2023-04-06T18:30:05.887Z,46.90
2023-04-06T18:32:32.937Z,46.90
2023-04-06T18:34:59.857Z,47.00
2023-04-06T18:37:26.731Z,47.30
2023-04-06T18:39:54.522Z,47.70
2023-04-06T18:42:21.377Z,48.20
2023-04-06T18:44:48.438Z,48.40
2023-04-06T18:47:15.760Z,48.60
2023-04-06T18:49:42.702Z,48.50
2023-04-06T18:52:09.512Z,48.40
2023-04-06T18:54:36.331Z,48.30
2023-04-06T18:57:04.444Z,48.00
2023-04-06T18:59:31.830Z,47.90
2023-04-06T19:01:59.555Z,47.70
2023-04-06T19:04:29.340Z,47.50
2023-04-06T19:06:56.563Z,47.30
2023-04-06T19:09:23.624Z,47.00
2023-04-06T19:11:51.094Z,47.00
2023-04-06T19:14:18.022Z,46.90
2023-04-06T19:16:52.594Z,46.80
2023-04-06T19:19:20.032Z,46.80
2023-04-06T19:21:47.034Z,46.70
2023-04-06T19:24:13.887Z,46.90
2023-04-06T19:26:42.668Z,46.90
2023-04-06T19:29:09.984Z,47.10
2023-04-06T19:31:37.075Z,47.10
2023-04-06T19:34:04.682Z,47.20
2023-04-06T19:36:32.437Z,47.30
2023-04-06T19:38:59.611Z,47.30
2023-04-06T19:41:27.435Z,47.30
2023-04-06T19:43:54.385Z,47.30
2023-04-06T19:46:21.648Z,47.30
2023-04-06T19:48:48.575Z,47.30
2023-04-06T19:51:15.529Z,47.40
2023-04-06T19:53:42.617Z,47.50
2023-04-06T19:56:10.326Z,47.60
2023-04-06T19:58:37.795Z,47.70
2023-04-06T20:01:05.158Z,47.80
2023-04-06T20:03:32.824Z,47.90
2023-04-06T20:06:00.003Z,47.90
2023-04-06T20:08:26.823Z,47.90
2023-04-06T20:10:59.811Z,48.00
2023-04-06T20:13:26.620Z,48.10
2023-04-06T20:15:53.471Z,48.10
2023-04-06T20:18:20.406Z,48.20
2023-04-06T20:20:47.375Z,48.30
2023-04-06T20:23:14.245Z,48.30
2023-04-06T20:25:41.179Z,48.50
2023-04-06T20:28:11.014Z,48.70
2023-04-06T20:30:38.019Z,48.90
2023-04-06T20:33:04.920Z,49.20
2023-04-06T20:35:32.123Z,49.20
2023-04-06T20:37:59.108Z,49.30
2023-04-06T20:40:25.949Z,49.30
2023-04-06T20:42:55.974Z,49.30
2023-04-06T20:45:23.241Z,49.50
2023-04-06T20:47:53.607Z,49.60
2023-04-06T20:50:21.075Z,49.70
2023-04-06T20:52:48.703Z,49.80
2023-04-06T20:55:15.743Z,50.00
2023-04-06T20:57:43.654Z,50.10
2023-04-06T21:00:12.278Z,50.20
2023-04-06T21:02:39.527Z,50.30
2023-04-06T21:05:08.769Z,50.20
2023-04-06T21:07:36.812Z,50.30
2023-04-06T21:10:03.939Z,50.30
2023-04-06T21:12:30.736Z,50.60
2023-04-06T21:14:57.666Z,50.60
2023-04-06T21:17:24.647Z,50.70
2023-04-06T21:19:51.501Z,50.70
2023-04-06T21:22:18.380Z,50.70
2023-04-06T21:24:45.346Z,50.80
2023-04-06T21:27:13.143Z,50.90
2023-04-06T21:29:40.327Z,51.70
2023-04-06T21:32:07.200Z,51.10
2023-04-06T21:34:34.004Z,51.80
2023-04-06T21:37:01.098Z,51.20
2023-04-06T21:39:28.010Z,51.20
2023-04-06T21:41:54.796Z,51.20
2023-04-06T21:44:21.709Z,51.10
2023-04-06T21:46:48.649Z,51.10
2023-04-06T21:49:15.568Z,51.10
2023-04-06T21:51:42.406Z,51.00
2023-04-06T21:54:10.039Z,50.90
2023-04-06T21:56:37.001Z,50.90
2023-04-06T21:59:03.804Z,51.00
2023-04-06T22:01:30.913Z,51.10
2023-04-06T22:03:57.904Z,51.20
2023-04-06T22:06:25.804Z,51.50
2023-04-06T22:08:52.777Z,51.70
2023-04-06T22:11:19.656Z,51.70
2023-04-06T22:13:46.834Z,51.80
2023-04-06T22:16:14.686Z,51.80
2023-04-06T22:18:41.562Z,52.00
2023-04-06T22:21:08.463Z,51.90
2023-04-06T22:23:36.079Z,52.00
2023-04-06T22:26:02.913Z,52.10
2023-04-06T22:28:29.761Z,52.30
2023-04-06T22:30:56.552Z,52.40
2023-04-06T22:33:23.343Z,52.60
2023-04-06T22:35:50.312Z,52.80
2023-04-06T22:38:17.160Z,52.80
2023-04-06T22:40:44.001Z,52.80
2023-04-06T22:43:10.853Z,52.90
2023-04-06T22:45:37.811Z,52.90
2023-04-06T22:48:04.602Z,53.00
2023-04-06T22:50:31.731Z,52.90
2023-04-06T22:52:58.684Z,52.90
2023-04-06T22:55:26.133Z,52.90
2023-04-06T22:57:53.019Z,53.20
2023-04-06T23:00:19.967Z,54.00
2023-04-06T23:02:46.908Z,53.50
2023-04-06T23:05:14.004Z,53.70
2023-04-06T23:07:40.799Z,53.80
2023-04-06T23:10:07.894Z,53.90
2023-04-06T23:12:34.720Z,54.00
2023-04-06T23:15:01.554Z,53.90
2023-04-06T23:17:28.477Z,53.90
2023-04-06T23:19:55.680Z,53.90
2023-04-06T23:22:22.586Z,53.90
2023-04-06T23:24:50.104Z,53.90
2023-04-06T23:27:17.009Z,53.90
2023-04-06T23:29:43.844Z,53.90
2023-04-06T23:32:11.008Z,54.00
2023-04-06T23:34:37.883Z,54.10
2023-04-06T23:37:04.879Z,54.30
2023-04-06T23:39:31.761Z,54.40
2023-04-06T23:41:58.616Z,54.70
2023-04-06T23:44:28.929Z,54.80
2023-04-06T23:46:55.701Z,54.90
2023-04-06T23:49:22.510Z,54.90
2023-04-06T23:51:49.283Z,54.90
2023-04-06T23:54:16.138Z,54.90
2023-04-06T23:56:42.962Z,54.80
2023-04-06T23:59:09.834Z,54.80
